2C6 weather

Tri-County Airport
Yates City, Illinois, United States

Public forecast

Using degrees Fahrenheit for public forecast. Weather courtesy of forecast.io.

Closest aviation weather report (METAR) to Tri-County Airport

Closest report is General Wayne A. Downing Peoria International Airport, 18.6 nm (34.4 km) ESE. Retrieved 2020/07/07 03:54 UTC (2 hours ago):

KPIA 070354Z 00000KT 10SM CLR 26/21 A3000 RMK AO2 SLP151 T02610211

Closest aviation forecast (TAF) to Tri-County Airport

Closest forecast is General Wayne A. Downing Peoria International Airport, 18.6 nm (34.4 km) ESE. Retrieved 2020-07-07 00:22 UTC (5 hours ago):

TAF KPIA 062320Z 0700/0724 VRB04KT P6SM VCTS BKN060CB FM070100 VRB03KT P6SM FEW045 SCT180 FM070900 00000KT 5SM BR SKC FM071300 VRB04KT P6SM SCT050 FM072000 VRB04KT P6SM VCTS SCT045CB BKN250